Time;durP1;ratioP1;P1;durP2;ratioP2;P2;SDS_P1;SDS_P2;PMS_P1;PMS_P2;Temp;Humidity;BMP_temperature;BMP_pressure;BME280_temperature;BME280_humidity;BME280_pressure;Samples;Min_cycle;Max_cycle;Signal;HPM_P1;HPM_P2
2021/11/16 00:01:46;;;;;;;;;;;8.40;64.70;;;;;;5073267;28;20345;-68
2021/11/16 00:04:12;;;;;;;;;;;8.40;64.50;;;;;;5073240;28;19958;-68
2021/11/16 00:06:37;;;;;;;;;;;8.40;64.40;;;;;;5068469;28;19916;-68
2021/11/16 00:09:04;;;;;;;;;;;8.40;64.40;;;;;;5072393;28;19986;-68
2021/11/16 00:11:31;;;;;;;;;;;8.40;64.50;;;;;;5071916;28;19908;-68
2021/11/16 00:13:56;;;;;;;;;;;8.40;64.50;;;;;;5089685;28;19926;-68
2021/11/16 00:16:22;;;;;;;;;;;8.40;64.40;;;;;;5092531;28;19912;-68
2021/11/16 00:18:56;;;;;;;;;;;8.40;64.40;;;;;;5092398;28;19912;-68
2021/11/16 00:21:24;;;;;;;;;;;8.40;64.20;;;;;;5092613;28;19912;-68
2021/11/16 00:23:53;;;;;;;;;;;8.40;64.10;;;;;;5082299;28;19916;-68
2021/11/16 00:26:19;;;;;;;;;;;8.30;63.90;;;;;;5072167;28;19971;-68
2021/11/16 00:28:45;;;;;;;;;;;8.30;63.90;;;;;;5072316;28;19952;-68
2021/11/16 00:31:11;;;;;;;;;;;8.30;64.20;;;;;;5071963;28;20320;-68
2021/11/16 00:33:36;;;;;;;;;;;8.30;64.40;;;;;;5085486;28;20002;-68
2021/11/16 00:36:02;;;;;;;;;;;8.30;64.50;;;;;;5092396;28;20350;-68
2021/11/16 00:38:28;;;;;;;;;;;8.30;64.50;;;;;;5092119;28;19958;-69
2021/11/16 00:40:54;;;;;;;;;;;8.30;64.60;;;;;;5092141;28;19908;-68
2021/11/16 00:43:20;;;;;;;;;;;8.30;64.60;;;;;;5080210;28;20003;-68
2021/11/16 00:45:46;;;;;;;;;;;8.30;64.50;;;;;;5072099;28;19908;-67
2021/11/16 00:48:14;;;;;;;;;;;8.30;64.50;;;;;;5071808;28;19908;-67
2021/11/16 00:50:41;;;;;;;;;;;8.30;64.30;;;;;;5071650;28;20277;-67
2021/11/16 00:53:07;;;;;;;;;;;8.20;64.10;;;;;;5080884;28;19998;-67
2021/11/16 00:55:33;;;;;;;;;;;8.20;64.00;;;;;;5091959;28;19912;-67
2021/11/16 00:57:58;;;;;;;;;;;8.20;64.00;;;;;;5091809;28;19912;-68
2021/11/16 01:00:24;;;;;;;;;;;8.20;64.00;;;;;;5090465;28;19934;-67
2021/11/16 01:02:50;;;;;;;;;;;8.10;64.10;;;;;;5078145;28;20093;-67
2021/11/16 01:05:15;;;;;;;;;;;8.10;64.40;;;;;;5061561;28;20267;-67
2021/11/16 01:07:42;;;;;;;;;;;8.10;64.50;;;;;;5051159;28;20404;-68
2021/11/16 01:10:13;;;;;;;;;;;8.10;64.50;;;;;;5067807;28;19909;-68
2021/11/16 01:12:39;;;;;;;;;;;8.10;64.60;;;;;;5076076;28;19938;-68
2021/11/16 01:15:06;;;;;;;;;;;8.20;64.80;;;;;;5083065;28;19925;-68
2021/11/16 01:17:32;;;;;;;;;;;8.20;65.20;;;;;;5051350;28;19956;-68
2021/11/16 01:19:58;;;;;;;;;;;8.30;65.30;;;;;;5050907;28;20025;-67
2021/11/16 01:22:24;;;;;;;;;;;8.30;65.40;;;;;;5061895;28;19913;-68
2021/11/16 01:24:49;;;;;;;;;;;8.40;65.50;;;;;;5098229;28;19923;-68
2021/11/16 01:27:19;;;;;;;;;;;8.40;65.40;;;;;;5098255;28;19908;-67
2021/11/16 01:29:49;;;;;;;;;;;8.50;65.50;;;;;;5098442;28;19908;-67
2021/11/16 01:35:00;;;;;;;;;;;8.60;65.50;;;;;;5076936;28;19919;-68
2021/11/16 01:37:26;;;;;;;;;;;8.60;65.40;;;;;;5078119;28;20350;-68
2021/11/16 01:39:52;;;;;;;;;;;8.60;65.20;;;;;;5077741;28;19931;-68
2021/11/16 01:42:18;;;;;;;;;;;8.60;65.80;;;;;;5080927;28;19920;-68
2021/11/16 01:44:44;;;;;;;;;;;8.60;64.90;;;;;;5098051;28;19916;-68
2021/11/16 01:47:10;;;;;;;;;;;8.60;64.80;;;;;;5097738;28;19912;-67
2021/11/16 01:49:36;;;;;;;;;;;8.60;64.70;;;;;;5097964;28;19919;-68
2021/11/16 01:52:02;;;;;;;;;;;8.50;64.60;;;;;;5095238;28;19920;-67
2021/11/16 01:54:28;;;;;;;;;;;8.50;64.70;;;;;;5077710;28;19958;-67
2021/11/16 01:56:53;;;;;;;;;;;8.50;64.70;;;;;;5077653;28;19909;-67
2021/11/16 01:59:19;;;;;;;;;;;8.50;64.80;;;;;;5077745;28;21053;-67
2021/11/16 02:01:46;;;;;;;;;;;8.40;64.70;;;;;;5075375;28;20003;-68
2021/11/16 02:04:12;;;;;;;;;;;8.40;64.70;;;;;;5075482;28;19904;-67
2021/11/16 02:06:39;;;;;;;;;;;8.40;64.70;;;;;;5077611;28;20051;-68
2021/11/16 02:09:09;;;;;;;;;;;8.40;64.80;;;;;;5077871;28;19904;-68
2021/11/16 02:11:34;;;;;;;;;;;8.40;64.90;;;;;;5077938;28;19909;-67
2021/11/16 02:14:01;;;;;;;;;;;8.40;64.90;;;;;;5078980;28;19920;-67
2021/11/16 02:16:27;;;;;;;;;;;8.40;64.90;;;;;;5078226;28;20362;-67
2021/11/16 02:18:52;;;;;;;;;;;8.30;64.90;;;;;;5078029;28;19920;-67
2021/11/16 02:21:19;;;;;;;;;;;8.30;65.00;;;;;;5077993;28;20262;-68
2021/11/16 02:23:44;;;;;;;;;;;8.30;65.00;;;;;;5095409;28;19916;-67
2021/11/16 02:26:11;;;;;;;;;;;8.40;65.10;;;;;;5096915;28;19909;-69
2021/11/16 02:28:37;;;;;;;;;;;8.40;65.10;;;;;;5098244;28;20412;-67
2021/11/16 02:31:04;;;;;;;;;;;8.40;65.10;;;;;;5098178;28;19998;-68
2021/11/16 02:33:30;;;;;;;;;;;8.40;65.00;;;;;;5079729;28;19974;-67
2021/11/16 02:35:55;;;;;;;;;;;8.30;65.00;;;;;;5074702;28;20369;-68
2021/11/16 02:38:21;;;;;;;;;;;8.40;65.00;;;;;;5074791;28;19909;-67
2021/11/16 02:40:47;;;;;;;;;;;8.40;65.00;;;;;;5074750;28;19912;-67
2021/11/16 02:43:13;;;;;;;;;;;8.40;65.10;;;;;;5087011;28;19913;-67
2021/11/16 02:45:39;;;;;;;;;;;8.40;65.10;;;;;;5094996;28;20392;-68
2021/11/16 02:48:14;;;;;;;;;;;8.40;65.10;;;;;;5094934;28;20074;-68
2021/11/16 02:50:41;;;;;;;;;;;8.40;65.00;;;;;;5094915;28;20354;-68
2021/11/16 02:53:06;;;;;;;;;;;8.40;65.00;;;;;;5082458;28;20063;-67
2021/11/16 02:55:32;;;;;;;;;;;8.40;65.00;;;;;;5074757;28;20003;-67
2021/11/16 02:57:58;;;;;;;;;;;8.40;65.00;;;;;;5074522;28;19908;-69
2021/11/16 03:00:23;;;;;;;;;;;8.40;65.00;;;;;;5074302;28;20004;-68
2021/11/16 03:02:49;;;;;;;;;;;8.40;65.00;;;;;;5083194;28;19951;-67
2021/11/16 03:05:15;;;;;;;;;;;8.40;65.10;;;;;;5094496;28;19985;-67
2021/11/16 03:07:47;;;;;;;;;;;8.40;65.20;;;;;;5094468;28;19951;-67
2021/11/16 03:10:13;;;;;;;;;;;8.40;65.90;;;;;;5076701;28;19916;-67
2021/11/16 03:12:39;;;;;;;;;;;8.40;65.20;;;;;;5081624;28;19912;-67
2021/11/16 03:15:05;;;;;;;;;;;8.40;65.20;;;;;;5094165;28;19973;-67
2021/11/16 03:17:31;;;;;;;;;;;8.40;65.20;;;;;;5093087;28;19912;-67
2021/11/16 03:19:57;;;;;;;;;;;8.50;65.30;;;;;;5094253;28;20400;-67
2021/11/16 03:22:27;;;;;;;;;;;8.50;65.30;;;;;;5088502;28;19919;-68
2021/11/16 03:24:55;;;;;;;;;;;8.50;65.20;;;;;;5073932;28;19963;-68
2021/11/16 03:27:28;;;;;;;;;;;8.50;65.10;;;;;;5073895;28;19937;-67
2021/11/16 03:29:57;;;;;;;;;;;8.50;65.10;;;;;;5073885;28;19912;-67
2021/11/16 03:32:30;;;;;;;;;;;8.60;65.10;;;;;;5078713;28;20384;-68
2021/11/16 03:34:55;;;;;;;;;;;8.60;65.00;;;;;;5094070;28;20396;-67
2021/11/16 03:37:24;;;;;;;;;;;8.60;64.90;;;;;;5093893;28;19908;-67
2021/11/16 03:39:50;;;;;;;;;;;8.60;64.90;;;;;;5053486;28;20363;-67
2021/11/16 03:42:16;;;;;;;;;;;8.60;64.90;;;;;;5061908;28;19922;-67
2021/11/16 03:44:41;;;;;;;;;;;8.70;65.10;;;;;;5092617;28;20344;-67
2021/11/16 03:47:07;;;;;;;;;;;8.70;65.20;;;;;;5093756;28;19944;-67
2021/11/16 03:49:33;;;;;;;;;;;8.70;65.30;;;;;;5093469;28;19917;-67
2021/11/16 03:51:58;;;;;;;;;;;8.70;65.40;;;;;;5091518;28;19912;-68
2021/11/16 03:54:24;;;;;;;;;;;8.80;65.50;;;;;;5071889;28;19909;-67
2021/11/16 03:56:50;;;;;;;;;;;8.80;65.50;;;;;;5072025;28;19922;-68
2021/11/16 03:59:16;;;;;;;;;;;8.90;65.60;;;;;;5073016;28;20366;-68
2021/11/16 04:01:41;;;;;;;;;;;8.90;65.60;;;;;;5053178;28;19913;-68
2021/11/16 04:04:08;;;;;;;;;;;8.90;65.60;;;;;;5091521;28;20007;-68
2021/11/16 04:06:34;;;;;;;;;;;9.00;65.70;;;;;;5093217;28;19912;-68
2021/11/16 04:09:00;;;;;;;;;;;9.00;65.80;;;;;;5086485;28;19905;-67
2021/11/16 04:11:26;;;;;;;;;;;9.10;65.80;;;;;;5093233;28;19912;-67
2021/11/16 04:13:52;;;;;;;;;;;9.10;65.80;;;;;;5075808;28;19924;-68
2021/11/16 04:16:17;;;;;;;;;;;9.20;65.90;;;;;;5072851;28;19912;-70
2021/11/16 04:18:44;;;;;;;;;;;9.20;65.90;;;;;;5072784;28;20489;-67
2021/11/16 04:21:10;;;;;;;;;;;9.20;65.90;;;;;;5072856;28;19912;-70
2021/11/16 04:23:35;;;;;;;;;;;9.30;66.00;;;;;;5072681;28;20329;-69
2021/11/16 04:26:02;;;;;;;;;;;9.30;65.60;;;;;;5086142;28;19951;-68
2021/11/16 04:28:28;;;;;;;;;;;9.30;65.30;;;;;;5092907;28;19908;-70
2021/11/16 04:30:54;;;;;;;;;;;9.40;65.20;;;;;;5091469;28;20277;-70
2021/11/16 04:33:21;;;;;;;;;;;9.30;64.90;;;;;;5092226;28;19972;-68
2021/11/16 04:35:47;;;;;;;;;;;9.40;64.80;;;;;;5092769;28;19908;-69
2021/11/16 04:38:14;;;;;;;;;;;9.30;64.70;;;;;;5080022;28;20378;-69
2021/11/16 04:40:41;;;;;;;;;;;9.30;64.70;;;;;;5072301;28;20254;-69
2021/11/16 04:43:09;;;;;;;;;;;9.30;64.60;;;;;;5072532;28;20330;-69
2021/11/16 04:45:36;;;;;;;;;;;9.30;64.60;;;;;;5072427;28;20366;-69
2021/11/16 04:48:16;;;;;;;;;;;9.30;64.50;;;;;;5072545;28;19914;-69
2021/11/16 05:03:43;;;;;;;;;;;9.10;64.30;;;;;;5073486;28;20278;-69
2021/11/16 05:06:09;;;;;;;;;;;9.10;64.30;;;;;;5071246;28;19912;-69
2021/11/16 05:08:37;;;;;;;;;;;9.10;64.40;;;;;;5071796;28;19908;-69
2021/11/16 05:11:03;;;;;;;;;;;9.00;64.40;;;;;;5072015;28;19958;-69
2021/11/16 05:13:29;;;;;;;;;;;9.00;64.40;;;;;;5071947;28;19909;-69
2021/11/16 05:15:54;;;;;;;;;;;9.00;64.40;;;;;;5072805;28;19916;-69
2021/11/16 05:18:20;;;;;;;;;;;9.00;64.40;;;;;;5072034;28;19908;-68
2021/11/16 05:20:45;;;;;;;;;;;9.00;64.50;;;;;;5071890;28;19912;-69
2021/11/16 05:23:12;;;;;;;;;;;9.00;64.50;;;;;;5072018;28;19915;-69
2021/11/16 05:25:38;;;;;;;;;;;9.00;64.60;;;;;;5072020;28;19942;-69
2021/11/16 05:28:05;;;;;;;;;;;8.90;64.50;;;;;;5086154;28;19913;-69
2021/11/16 05:30:32;;;;;;;;;;;8.90;64.50;;;;;;5091918;28;20377;-69
2021/11/16 05:32:57;;;;;;;;;;;8.90;64.50;;;;;;5092078;28;19963;-69
2021/11/16 05:35:23;;;;;;;;;;;8.90;64.60;;;;;;5092046;28;19978;-69
2021/11/16 05:37:49;;;;;;;;;;;8.90;64.60;;;;;;5092007;28;20451;-69
2021/11/16 05:40:14;;;;;;;;;;;8.90;64.60;;;;;;5079976;28;20027;-68
2021/11/16 05:42:40;;;;;;;;;;;8.90;64.60;;;;;;5053127;28;20386;-69
2021/11/16 05:45:06;;;;;;;;;;;8.90;64.50;;;;;;5051628;28;19905;-68
2021/11/16 05:47:32;;;;;;;;;;;8.90;64.50;;;;;;5059931;28;19919;-69
2021/11/16 05:49:58;;;;;;;;;;;8.90;64.40;;;;;;5071640;28;19911;-69
2021/11/16 05:52:23;;;;;;;;;;;8.90;64.40;;;;;;5071332;28;19912;-69
2021/11/16 05:54:52;;;;;;;;;;;8.90;64.30;;;;;;5071683;28;19904;-69
2021/11/16 05:57:18;;;;;;;;;;;8.90;64.40;;;;;;5071427;28;19913;-69
2021/11/16 05:59:43;;;;;;;;;;;8.90;64.30;;;;;;5059365;28;19963;-70
2021/11/16 06:02:10;;;;;;;;;;;9.00;64.30;;;;;;5050433;28;19917;-69
2021/11/16 06:04:36;;;;;;;;;;;8.90;64.30;;;;;;5056989;28;19992;-69
2021/11/16 06:07:03;;;;;;;;;;;9.00;64.40;;;;;;5071439;28;20008;-69
2021/11/16 06:09:31;;;;;;;;;;;9.00;64.40;;;;;;5074641;28;19912;-70
2021/11/16 06:11:57;;;;;;;;;;;9.00;64.50;;;;;;5062282;28;19967;-69
2021/11/16 06:14:23;;;;;;;;;;;9.00;64.50;;;;;;5055053;28;20386;-69
2021/11/16 06:16:48;;;;;;;;;;;9.00;64.50;;;;;;5055082;28;19952;-69
2021/11/16 06:19:17;;;;;;;;;;;9.00;64.40;;;;;;5075956;28;19912;-68
2021/11/16 06:21:43;;;;;;;;;;;9.00;64.40;;;;;;5075063;28;19908;-67
2021/11/16 06:24:08;;;;;;;;;;;9.00;64.40;;;;;;5075044;28;20019;-68
2021/11/16 06:26:34;;;;;;;;;;;9.00;64.40;;;;;;5075054;28;19909;-68
2021/11/16 06:29:01;;;;;;;;;;;9.00;64.40;;;;;;5074900;28;19999;-69
2021/11/16 06:31:29;;;;;;;;;;;9.00;64.40;;;;;;5090030;28;20427;-68
2021/11/16 06:33:58;;;;;;;;;;;9.00;64.40;;;;;;5095051;28;19990;-72
2021/11/16 06:36:24;;;;;;;;;;;9.10;64.50;;;;;;5095065;28;19957;-68
2021/11/16 06:38:49;;;;;;;;;;;9.10;64.60;;;;;;5094894;28;20310;-68
2021/11/16 06:41:15;;;;;;;;;;;9.10;64.70;;;;;;5081092;28;20381;-69
2021/11/16 06:43:41;;;;;;;;;;;9.10;64.50;;;;;;5086673;28;20366;-69
2021/11/16 06:46:06;;;;;;;;;;;9.10;64.40;;;;;;5094958;28;19947;-68
2021/11/16 06:48:32;;;;;;;;;;;9.10;64.40;;;;;;5094999;28;19973;-68
2021/11/16 06:50:58;;;;;;;;;;;9.10;64.40;;;;;;5094791;28;19908;-68
2021/11/16 06:53:24;;;;;;;;;;;9.10;64.40;;;;;;5094734;28;20377;-68
2021/11/16 06:55:50;;;;;;;;;;;9.10;64.40;;;;;;5080076;28;19966;-68
2021/11/16 06:58:15;;;;;;;;;;;9.10;64.40;;;;;;5074668;28;19928;-68
2021/11/16 07:00:41;;;;;;;;;;;9.20;64.40;;;;;;5074378;28;19920;-68
2021/11/16 07:03:07;;;;;;;;;;;9.20;64.40;;;;;;5074435;28;19908;-68
2021/11/16 07:05:33;;;;;;;;;;;9.20;64.40;;;;;;5074484;28;19915;-68
2021/11/16 07:08:00;;;;;;;;;;;9.20;64.40;;;;;;5083210;28;19919;-68
2021/11/16 07:10:31;;;;;;;;;;;9.20;64.40;;;;;;5094500;28;19912;-68
2021/11/16 07:13:08;;;;;;;;;;;9.20;64.50;;;;;;5094474;28;20258;-68
2021/11/16 07:15:34;;;;;;;;;;;9.30;64.50;;;;;;5052767;28;20332;-68
2021/11/16 07:18:01;;;;;;;;;;;9.30;65.40;;;;;;5069181;28;19916;-67
2021/11/16 07:20:27;;;;;;;;;;;9.30;64.60;;;;;;5074499;28;20409;-68
2021/11/16 07:22:52;;;;;;;;;;;9.30;64.60;;;;;;5073919;28;19908;-68
2021/11/16 07:25:18;;;;;;;;;;;9.40;64.70;;;;;;5073976;28;19951;-67
2021/11/16 07:27:46;;;;;;;;;;;9.40;64.70;;;;;;5073761;28;19909;-68
2021/11/16 07:30:13;;;;;;;;;;;9.40;64.70;;;;;;5074102;28;19962;-68
2021/11/16 07:32:44;;;;;;;;;;;9.50;64.80;;;;;;5074590;28;19920;-69
2021/11/16 07:35:10;;;;;;;;;;;9.50;64.80;;;;;;5073805;28;20388;-68
2021/11/16 07:37:37;;;;;;;;;;;9.60;65.00;;;;;;5073797;28;19913;-68
2021/11/16 07:40:03;;;;;;;;;;;9.60;65.00;;;;;;5073617;28;19912;-68
2021/11/16 07:42:30;;;;;;;;;;;9.60;65.10;;;;;;5062397;28;19913;-69
2021/11/16 07:45:21;;;;;;;;;;;9.70;65.10;;;;;;5074549;28;19988;-68
2021/11/16 07:47:54;;;;;;;;;;;9.70;65.10;;;;;;5071390;28;19909;-69
2021/11/16 07:50:29;;;;;;;;;;;9.80;65.10;;;;;;5073564;28;19927;-69
2021/11/16 07:52:55;;;;;;;;;;;9.90;65.10;;;;;;5073418;28;19934;-69
2021/11/16 07:55:26;;;;;;;;;;;9.90;65.10;;;;;;5073317;28;19915;-69
2021/11/16 07:57:53;;;;;;;;;;;9.90;65.00;;;;;;5079109;28;20012;-69
2021/11/16 08:00:26;;;;;;;;;;;10.00;65.00;;;;;;5093393;28;19969;-68
2021/11/16 08:03:01;;;;;;;;;;;10.10;65.00;;;;;;5092447;28;19916;-68
2021/11/16 08:08:19;;;;;;;;;;;10.20;64.70;;;;;;5093636;28;19915;-68
2021/11/16 08:10:49;;;;;;;;;;;10.20;64.60;;;;;;5081405;28;19970;-69
2021/11/16 08:13:16;;;;;;;;;;;10.30;64.60;;;;;;5072742;28;20027;-69
2021/11/16 08:15:42;;;;;;;;;;;10.40;64.40;;;;;;5072811;28;20007;-69
2021/11/16 08:18:13;;;;;;;;;;;10.40;64.20;;;;;;5073211;28;19975;-69
2021/11/16 08:20:39;;;;;;;;;;;10.50;64.10;;;;;;5068050;28;19964;-69
2021/11/16 08:23:05;;;;;;;;;;;10.60;64.10;;;;;;5072759;28;20028;-69
2021/11/16 08:25:32;;;;;;;;;;;10.60;64.00;;;;;;5072715;28;19912;-69
2021/11/16 08:27:58;;;;;;;;;;;10.60;63.90;;;;;;5070785;28;19912;-69
2021/11/16 08:30:24;;;;;;;;;;;10.60;63.80;;;;;;5050913;28;20298;-69
2021/11/16 08:32:57;;;;;;;;;;;10.70;63.70;;;;;;5068670;28;19920;-70
2021/11/16 08:35:24;;;;;;;;;;;10.70;63.60;;;;;;5063443;28;19916;-69
2021/11/16 08:37:55;;;;;;;;;;;10.80;63.50;;;;;;5073974;28;19913;-72
2021/11/16 08:40:23;;;;;;;;;;;10.80;63.40;;;;;;5082937;28;19952;-72
2021/11/16 08:42:54;;;;;;;;;;;10.90;63.40;;;;;;5074741;28;19912;-73
2021/11/16 08:45:25;;;;;;;;;;;10.90;63.20;;;;;;5092446;28;19916;-72
2021/11/16 08:48:04;;;;;;;;;;;10.90;63.10;;;;;;5073378;28;20312;-72
2021/11/16 08:50:35;;;;;;;;;;;11.00;63.10;;;;;;5071306;28;20275;-72
2021/11/16 08:53:24;;;;;;;;;;;11.00;63.00;;;;;;5072181;28;19948;-72
2021/11/16 08:55:50;;;;;;;;;;;11.00;62.80;;;;;;5067442;28;20388;-72
2021/11/16 08:58:16;;;;;;;;;;;11.10;62.80;;;;;;5072288;28;19912;-72
2021/11/16 09:01:00;;;;;;;;;;;11.10;62.80;;;;;;5070936;28;19912;-72
2021/11/16 09:03:29;;;;;;;;;;;11.20;62.80;;;;;;5074040;28;19919;-73
2021/11/16 09:05:55;;;;;;;;;;;11.20;62.70;;;;;;5081871;28;20365;-73
2021/11/16 09:08:25;;;;;;;;;;;11.30;62.60;;;;;;5076202;28;19913;-72
2021/11/16 09:10:52;;;;;;;;;;;11.30;62.50;;;;;;5070620;28;20306;-72
2021/11/16 09:13:20;;;;;;;;;;;11.30;62.30;;;;;;5071773;28;19916;-72
2021/11/16 09:15:52;;;;;;;;;;;11.40;62.10;;;;;;5071761;28;19925;-73
2021/11/16 09:18:22;;;;;;;;;;;11.40;62.10;;;;;;5071041;28;19995;-72
2021/11/16 09:21:01;;;;;;;;;;;11.40;61.90;;;;;;5071826;28;20290;-72
2021/11/16 09:23:32;;;;;;;;;;;11.50;61.80;;;;;;5070866;28;19909;-72
2021/11/16 09:26:05;;;;;;;;;;;11.50;61.70;;;;;;5065669;28;19995;-72
2021/11/16 09:28:38;;;;;;;;;;;11.50;61.60;;;;;;5064453;28;20464;-74
2021/11/16 09:31:21;;;;;;;;;;;11.50;61.40;;;;;;5071008;28;20420;-73
2021/11/16 09:33:47;;;;;;;;;;;11.50;61.20;;;;;;5072050;28;20002;-72
2021/11/16 09:36:24;;;;;;;;;;;11.50;61.10;;;;;;5072661;28;19916;-73
2021/11/16 09:38:53;;;;;;;;;;;11.50;61.10;;;;;;5071204;28;19915;-73
2021/11/16 09:41:37;;;;;;;;;;;11.50;61.10;;;;;;5071423;28;19919;-74
2021/11/16 09:44:06;;;;;;;;;;;11.50;61.10;;;;;;5074537;28;19913;-74
2021/11/16 09:46:41;;;;;;;;;;;11.50;61.10;;;;;;5078605;28;19908;-74
2021/11/16 09:49:06;;;;;;;;;;;11.50;61.10;;;;;;5075941;28;19947;-72
2021/11/16 09:51:32;;;;;;;;;;;11.50;61.00;;;;;;5075613;28;20364;-73
2021/11/16 09:54:03;;;;;;;;;;;11.50;60.90;;;;;;5075718;28;19908;-72
2021/11/16 09:56:29;;;;;;;;;;;11.50;61.00;;;;;;5074440;28;19951;-73
2021/11/16 09:58:56;;;;;;;;;;;11.60;61.00;;;;;;5075519;28;19915;-73
2021/11/16 10:01:24;;;;;;;;;;;11.60;61.00;;;;;;5074318;28;19974;-72
2021/11/16 10:04:04;;;;;;;;;;;11.60;61.00;;;;;;5075238;28;20449;-73
2021/11/16 10:06:30;;;;;;;;;;;11.60;60.90;;;;;;5074437;28;20251;-73
2021/11/16 10:08:56;;;;;;;;;;;11.70;60.80;;;;;;5079974;28;19969;-73
2021/11/16 10:11:22;;;;;;;;;;;11.70;60.70;;;;;;5086619;28;19958;-73
2021/11/16 10:13:48;;;;;;;;;;;11.70;60.60;;;;;;5074954;28;19917;-73
2021/11/16 10:16:13;;;;;;;;;;;11.70;60.50;;;;;;5077364;28;19912;-72
2021/11/16 10:18:41;;;;;;;;;;;11.80;60.60;;;;;;5075154;28;20365;-73
2021/11/16 10:21:08;;;;;;;;;;;11.80;60.50;;;;;;5077878;28;20254;-73
2021/11/16 10:23:36;;;;;;;;;;;11.80;60.50;;;;;;5071573;28;19912;-74
2021/11/16 10:26:02;;;;;;;;;;;11.90;60.60;;;;;;5057367;28;19916;-73
2021/11/16 10:28:31;;;;;;;;;;;11.90;60.60;;;;;;5090514;28;19912;-73
2021/11/16 10:31:01;;;;;;;;;;;12.00;60.60;;;;;;5074192;28;20281;-73
2021/11/16 10:33:29;;;;;;;;;;;12.10;60.60;;;;;;5074607;28;20274;-73
2021/11/16 10:35:57;;;;;;;;;;;12.20;60.70;;;;;;5073179;28;19912;-73
2021/11/16 10:38:25;;;;;;;;;;;12.20;60.50;;;;;;5076005;28;19919;-73
2021/11/16 10:40:51;;;;;;;;;;;12.30;60.40;;;;;;5084204;28;20449;-73
2021/11/16 10:43:17;;;;;;;;;;;12.40;60.30;;;;;;5089472;28;19999;-73
2021/11/16 10:45:44;;;;;;;;;;;12.40;60.00;;;;;;5094999;28;19911;-73
2021/11/16 10:48:13;;;;;;;;;;;12.50;60.10;;;;;;5092101;28;19997;-73
2021/11/16 10:50:40;;;;;;;;;;;12.60;60.00;;;;;;5074605;28;19961;-72
2021/11/16 10:53:09;;;;;;;;;;;12.60;59.90;;;;;;5083795;28;19912;-71
2021/11/16 10:55:44;;;;;;;;;;;12.70;59.80;;;;;;5078681;28;19908;-71
2021/11/16 10:58:11;;;;;;;;;;;12.80;59.70;;;;;;5077161;28;19978;-72
2021/11/16 11:00:39;;;;;;;;;;;12.80;59.50;;;;;;5074434;28;19916;-72
2021/11/16 11:03:12;;;;;;;;;;;12.90;59.50;;;;;;5074596;28;20285;-71
2021/11/16 11:05:38;;;;;;;;;;;13.00;59.60;;;;;;5074514;28;20285;-71
2021/11/16 11:08:03;;;;;;;;;;;13.10;59.40;;;;;;5073130;28;19909;-71
2021/11/16 11:10:42;;;;;;;;;;;13.20;59.30;;;;;;5074609;28;19909;-72
2021/11/16 11:13:15;;;;;;;;;;;13.20;59.20;;;;;;5070948;28;20007;-72
2021/11/16 11:15:40;;;;;;;;;;;13.30;59.00;;;;;;5073749;28;19920;-72
2021/11/16 11:18:07;;;;;;;;;;;13.30;58.80;;;;;;5073776;28;19909;-72
2021/11/16 11:20:39;;;;;;;;;;;13.30;58.70;;;;;;5073806;28;19912;-72
2021/11/16 11:23:24;;;;;;;;;;;13.40;58.70;;;;;;5073944;28;20054;-72
2021/11/16 11:25:51;;;;;;;;;;;13.40;58.60;;;;;;5073754;28;19909;-72
2021/11/16 11:28:39;;;;;;;;;;;13.50;58.60;;;;;;5073826;28;19930;-72
2021/11/16 11:31:23;;;;;;;;;;;13.50;58.50;;;;;;5074135;28;20282;-72
2021/11/16 11:33:49;;;;;;;;;;;13.50;58.40;;;;;;5073635;28;19908;-72
2021/11/16 11:36:19;;;;;;;;;;;13.60;58.40;;;;;;5073577;28;19913;-72
2021/11/16 11:38:44;;;;;;;;;;;13.60;58.30;;;;;;5073581;28;20369;-72
2021/11/16 11:41:10;;;;;;;;;;;13.60;58.00;;;;;;5073530;28;19913;-72
2021/11/16 11:43:36;;;;;;;;;;;13.70;58.00;;;;;;5073511;28;19909;-72
2021/11/16 11:46:02;;;;;;;;;;;13.70;58.00;;;;;;5073786;28;20288;-72
2021/11/16 11:48:28;;;;;;;;;;;13.80;57.90;;;;;;5073360;28;19909;-72
2021/11/16 11:50:56;;;;;;;;;;;13.80;57.80;;;;;;5073484;28;20273;-72
2021/11/16 11:53:24;;;;;;;;;;;13.90;57.90;;;;;;5072005;28;19991;-72
2021/11/16 11:55:56;;;;;;;;;;;13.90;57.70;;;;;;5073264;28;19908;-72
2021/11/16 11:58:23;;;;;;;;;;;14.00;57.80;;;;;;5073299;28;19912;-72
2021/11/16 12:00:50;;;;;;;;;;;14.00;57.90;;;;;;5073155;28;19919;-72
2021/11/16 12:03:18;;;;;;;;;;;14.10;57.80;;;;;;5073031;28;20388;-72
2021/11/16 12:05:44;;;;;;;;;;;14.10;57.70;;;;;;5072165;28;19915;-72
2021/11/16 12:08:10;;;;;;;;;;;14.20;57.50;;;;;;5071868;28;20353;-72
2021/11/16 12:10:37;;;;;;;;;;;14.20;57.20;;;;;;5073073;28;19913;-73
2021/11/16 12:13:03;;;;;;;;;;;14.20;57.10;;;;;;5072815;28;19915;-72
2021/11/16 12:15:31;;;;;;;;;;;14.20;56.90;;;;;;5073179;28;19943;-72
2021/11/16 12:17:58;;;;;;;;;;;14.20;56.80;;;;;;5072892;28;19962;-72
2021/11/16 12:20:35;;;;;;;;;;;14.20;56.60;;;;;;5072678;28;19912;-73
2021/11/16 12:23:01;;;;;;;;;;;14.20;56.60;;;;;;5072835;28;19909;-71
2021/11/16 12:25:27;;;;;;;;;;;14.20;56.50;;;;;;5072716;28;19998;-71
2021/11/16 12:27:53;;;;;;;;;;;14.20;56.50;;;;;;5072015;28;19912;-72
2021/11/16 12:30:33;;;;;;;;;;;14.20;56.50;;;;;;5072541;28;20353;-72
2021/11/16 12:33:00;;;;;;;;;;;14.20;56.50;;;;;;5072585;28;19954;-72
2021/11/16 12:35:26;;;;;;;;;;;14.20;56.50;;;;;;5071557;28;20285;-72
2021/11/16 12:37:53;;;;;;;;;;;14.10;56.40;;;;;;5071257;28;19923;-72
2021/11/16 12:40:21;;;;;;;;;;;14.10;56.30;;;;;;5072580;28;20381;-72
2021/11/16 12:43:20;;;;;;;;;;;14.10;56.30;;;;;;5073363;28;19909;-72
2021/11/16 12:45:50;;;;;;;;;;;14.20;56.30;;;;;;5010481;28;19988;-72
2021/11/16 12:48:20;;;;;;;;;;;14.10;56.20;;;;;;5006417;28;20083;-72
2021/11/16 12:51:09;;;;;;;;;;;14.20;56.20;;;;;;5030290;28;19920;-72
2021/11/16 12:54:04;;;;;;;;;;;14.20;56.00;;;;;;5017407;28;19909;-72
2021/11/16 12:56:39;;;;;;;;;;;14.20;56.00;;;;;;5009387;28;19917;-72
2021/11/16 12:59:05;;;;;;;;;;;14.20;55.90;;;;;;5030092;28;20003;-72
2021/11/16 13:01:38;;;;;;;;;;;14.10;55.80;;;;;;5030227;28;20001;-72
2021/11/16 13:04:06;;;;;;;;;;;14.20;55.80;;;;;;5029997;28;19951;-72
2021/11/16 13:06:35;;;;;;;;;;;14.10;55.80;;;;;;5030104;28;19974;-72
2021/11/16 13:09:03;;;;;;;;;;;14.20;55.70;;;;;;5030057;28;19913;-72
2021/11/16 13:11:45;;;;;;;;;;;14.20;55.80;;;;;;5030070;28;19921;-73
2021/11/16 13:14:12;;;;;;;;;;;14.20;55.80;;;;;;5029516;28;19924;-72
2021/11/16 13:16:38;;;;;;;;;;;14.20;55.60;;;;;;5029515;28;19909;-73
2021/11/16 13:19:04;;;;;;;;;;;14.20;55.60;;;;;;5013214;28;19913;-72
2021/11/16 13:21:37;;;;;;;;;;;14.20;55.70;;;;;;5053792;28;19909;-72
2021/11/16 13:24:05;;;;;;;;;;;14.20;55.50;;;;;;5072122;28;19965;-72
2021/11/16 13:26:33;;;;;;;;;;;14.20;56.20;;;;;;5072013;28;19965;-72
2021/11/16 13:31:44;;;;;;;;;;;14.20;55.50;;;;;;5072323;28;19912;-72
2021/11/16 13:34:13;;;;;;;;;;;14.20;55.50;;;;;;5070748;28;19912;-72
2021/11/16 13:36:43;;;;;;;;;;;14.20;55.50;;;;;;5072001;28;19916;-72
2021/11/16 13:39:18;;;;;;;;;;;14.10;55.40;;;;;;5072216;28;19909;-72
2021/11/16 13:41:52;;;;;;;;;;;14.10;55.50;;;;;;5070653;28;19948;-72
2021/11/16 13:44:30;;;;;;;;;;;14.10;55.40;;;;;;5071692;28;19935;-72
2021/11/16 13:47:03;;;;;;;;;;;14.00;55.30;;;;;;5071690;28;19975;-72
2021/11/16 13:49:38;;;;;;;;;;;14.00;55.30;;;;;;5071811;28;19912;-72
2021/11/16 13:52:15;;;;;;;;;;;13.90;55.30;;;;;;5070377;28;19909;-72
2021/11/16 13:54:43;;;;;;;;;;;13.80;55.40;;;;;;5071839;28;19913;-72
2021/11/16 13:57:11;;;;;;;;;;;13.80;55.50;;;;;;5070350;28;19908;-72
2021/11/16 13:59:37;;;;;;;;;;;13.80;55.60;;;;;;5071531;28;19912;-72
2021/11/16 14:02:04;;;;;;;;;;;13.70;55.60;;;;;;5071504;28;19955;-72
2021/11/16 14:04:30;;;;;;;;;;;13.70;55.70;;;;;;5071448;28;19908;-71
2021/11/16 14:07:16;;;;;;;;;;;13.70;55.70;;;;;;5071708;28;19935;-71
2021/11/16 14:09:42;;;;;;;;;;;13.70;55.70;;;;;;5071605;28;19909;-71
2021/11/16 14:12:08;;;;;;;;;;;13.60;55.70;;;;;;5071670;28;19993;-71
2021/11/16 14:14:36;;;;;;;;;;;13.60;55.70;;;;;;5070998;28;20342;-71
2021/11/16 14:17:07;;;;;;;;;;;13.60;55.80;;;;;;5071530;28;20374;-71
2021/11/16 14:19:45;;;;;;;;;;;13.50;55.80;;;;;;5071305;28;20322;-72
2021/11/16 14:22:21;;;;;;;;;;;13.50;55.80;;;;;;5070117;28;20351;-72
2021/11/16 14:24:47;;;;;;;;;;;13.50;55.80;;;;;;5071388;28;19916;-71
2021/11/16 14:27:13;;;;;;;;;;;13.50;55.80;;;;;;5071486;28;19913;-72
2021/11/16 14:29:38;;;;;;;;;;;13.50;55.80;;;;;;5073092;28;19920;-72
2021/11/16 14:32:04;;;;;;;;;;;13.50;55.90;;;;;;5074827;28;19908;-72
2021/11/16 14:34:30;;;;;;;;;;;13.40;55.80;;;;;;5074761;28;19938;-72
2021/11/16 14:36:58;;;;;;;;;;;13.40;55.80;;;;;;5075851;28;20358;-72
2021/11/16 14:39:32;;;;;;;;;;;13.30;55.80;;;;;;5074779;28;19952;-72
2021/11/16 14:42:02;;;;;;;;;;;13.30;55.90;;;;;;5074912;28;19912;-72
2021/11/16 14:44:32;;;;;;;;;;;13.20;55.90;;;;;;5074677;28;20258;-72
2021/11/16 14:47:00;;;;;;;;;;;13.20;55.90;;;;;;5074746;28;20003;-72
2021/11/16 14:49:28;;;;;;;;;;;13.10;55.90;;;;;;5073302;28;19916;-72
2021/11/16 14:51:56;;;;;;;;;;;13.00;56.00;;;;;;5074567;28;19920;-72